createdAt,value
2023-01-17T00:02:25.213Z,83.50
2023-01-17T00:05:10.639Z,83.98
2023-01-17T00:07:56.144Z,83.36
2023-01-17T00:10:29.157Z,83.00
2023-01-17T00:13:00.106Z,82.88
2023-01-17T00:15:30.702Z,82.23
2023-01-17T00:17:59.454Z,82.73
2023-01-17T00:20:48.176Z,82.20
2023-01-17T00:23:36.398Z,82.84
2023-01-17T00:26:07.117Z,83.44
2023-01-17T00:28:35.094Z,82.75
2023-01-17T00:31:02.559Z,83.15
2023-01-17T00:33:29.500Z,83.67
2023-01-17T00:35:58.543Z,84.10
2023-01-17T00:38:27.599Z,84.01
2023-01-17T00:40:54.514Z,83.52
2023-01-17T00:43:42.363Z,83.60
2023-01-17T00:46:28.108Z,83.57
2023-01-17T00:49:13.337Z,83.44
2023-01-17T00:51:58.806Z,83.60
2023-01-17T00:54:44.148Z,83.24
2023-01-17T00:57:29.546Z,83.44
2023-01-17T01:00:16.136Z,83.87
2023-01-17T01:03:01.908Z,83.83
2023-01-17T01:05:47.325Z,84.33
2023-01-17T01:08:39.242Z,84.65
2023-01-17T01:11:30.804Z,84.37
2023-01-17T01:14:18.108Z,84.29
2023-01-17T01:17:05.171Z,83.75
2023-01-17T01:19:50.706Z,83.94
2023-01-17T01:22:36.491Z,83.36
2023-01-17T01:25:22.715Z,83.33
2023-01-17T01:28:08.198Z,82.54
2023-01-17T01:30:53.562Z,82.67
2023-01-17T01:33:21.634Z,82.37
2023-01-17T01:35:51.476Z,82.46
2023-01-17T01:38:21.222Z,82.66
2023-01-17T01:40:52.367Z,82.61
2023-01-17T01:43:40.255Z,82.11
2023-01-17T01:46:11.027Z,82.73
2023-01-17T01:48:48.100Z,82.52
2023-01-17T01:51:22.345Z,81.71
2023-01-17T01:53:55.248Z,82.22
2023-01-17T01:56:24.408Z,82.00
2023-01-17T01:58:54.472Z,81.80
2023-01-17T02:01:22.440Z,82.58
2023-01-17T02:03:52.401Z,82.35
2023-01-17T02:06:35.969Z,82.47
2023-01-17T02:09:09.068Z,81.77
2023-01-17T02:11:39.898Z,81.54
2023-01-17T02:14:08.050Z,82.37
2023-01-17T02:16:57.967Z,81.99
2023-01-17T02:20:22.487Z,82.04
2023-01-17T02:23:29.008Z,82.11
2023-01-17T02:26:31.977Z,82.08
2023-01-17T02:29:27.063Z,81.77
2023-01-17T02:32:03.189Z,82.97
2023-01-17T02:34:42.286Z,81.89
2023-01-17T02:37:23.426Z,82.63
2023-01-17T02:40:00.911Z,83.68
2023-01-17T02:42:39.455Z,82.90
2023-01-17T02:45:08.732Z,82.84
2023-01-17T02:47:38.377Z,83.11
2023-01-17T02:50:12.758Z,82.58
2023-01-17T02:53:00.327Z,81.35
2023-01-17T02:55:47.567Z,82.49
2023-01-17T02:58:35.466Z,82.32
2023-01-17T03:01:21.610Z,84.16
2023-01-17T03:03:59.959Z,85.08
2023-01-17T03:06:39.754Z,85.22
2023-01-17T03:09:09.784Z,85.44
2023-01-17T03:11:37.922Z,85.59
2023-01-17T03:14:05.621Z,87.13
2023-01-17T03:16:34.724Z,86.84
2023-01-17T03:19:04.231Z,86.62
2023-01-17T03:21:32.111Z,86.87
2023-01-17T03:24:00.002Z,87.41
2023-01-17T03:26:27.937Z,87.05
2023-01-17T03:28:55.833Z,87.25
2023-01-17T03:31:23.644Z,88.68
2023-01-17T03:33:51.438Z,88.50
2023-01-17T03:36:20.538Z,87.72
2023-01-17T03:38:48.509Z,87.35
2023-01-17T03:41:16.275Z,86.76
2023-01-17T03:43:44.012Z,87.57
2023-01-17T03:46:21.182Z,87.46
2023-01-17T03:48:49.233Z,87.12
2023-01-17T03:51:17.626Z,86.62
2023-01-17T03:53:47.293Z,86.68
2023-01-17T03:56:15.798Z,87.27
2023-01-17T03:58:43.927Z,87.44
2023-01-17T04:01:12.104Z,87.63
2023-01-17T04:03:40.103Z,87.28
2023-01-17T04:06:08.213Z,86.85
2023-01-17T04:08:35.964Z,87.35
2023-01-17T04:11:05.268Z,87.18
2023-01-17T04:13:33.036Z,87.69
2023-01-17T04:16:00.952Z,86.95
2023-01-17T04:18:29.386Z,87.05
2023-01-17T04:20:57.192Z,87.53
2023-01-17T04:23:24.979Z,87.17
2023-01-17T04:25:52.754Z,87.40
2023-01-17T04:28:21.859Z,87.73
2023-01-17T04:30:49.643Z,87.51
2023-01-17T04:33:17.422Z,88.29
2023-01-17T04:35:45.208Z,87.61
2023-01-17T04:38:12.982Z,87.93
2023-01-17T04:40:40.756Z,87.77
2023-01-17T04:43:08.489Z,88.00
2023-01-17T04:45:38.735Z,88.29
2023-01-17T04:48:08.336Z,88.16
2023-01-17T04:50:36.211Z,88.14
2023-01-17T04:53:04.014Z,87.66
2023-01-17T04:55:32.055Z,86.74
2023-01-17T04:57:59.840Z,86.50
2023-01-17T05:00:27.714Z,85.94
2023-01-17T05:02:56.942Z,84.82
2023-01-17T05:05:24.778Z,84.92
2023-01-17T05:07:56.216Z,85.20
2023-01-17T05:10:24.243Z,84.72
2023-01-17T05:12:56.651Z,85.01
2023-01-17T05:15:25.598Z,84.99
2023-01-17T05:17:56.136Z,84.49
2023-01-17T05:20:26.700Z,84.58
2023-01-17T05:22:56.344Z,84.44
2023-01-17T05:25:25.191Z,84.12
2023-01-17T05:27:53.240Z,82.89
2023-01-17T05:30:22.846Z,83.30
2023-01-17T05:32:51.555Z,82.73
2023-01-17T05:35:23.350Z,81.13
2023-01-17T05:37:52.323Z,79.54
2023-01-17T05:40:23.783Z,78.98
2023-01-17T05:42:54.310Z,81.62
2023-01-17T05:45:25.073Z,80.58
2023-01-17T05:47:54.169Z,79.74
2023-01-17T05:50:26.339Z,80.54
2023-01-17T05:52:56.970Z,82.44
2023-01-17T05:55:27.013Z,82.50
2023-01-17T05:57:55.583Z,81.12
2023-01-17T06:00:24.908Z,81.37
2023-01-17T06:02:55.094Z,81.82
2023-01-17T06:05:25.056Z,82.08
2023-01-17T06:07:53.331Z,82.57
2023-01-17T06:10:23.263Z,81.78
2023-01-17T06:12:51.247Z,81.60
2023-01-17T06:15:19.979Z,80.17
2023-01-17T06:17:47.699Z,80.72
2023-01-17T06:20:15.511Z,80.90
2023-01-17T06:22:44.654Z,81.20
2023-01-17T06:25:12.896Z,81.71
2023-01-17T06:27:40.714Z,82.61
2023-01-17T06:30:10.546Z,82.95
2023-01-17T06:32:38.319Z,83.14
2023-01-17T06:35:07.040Z,83.67
2023-01-17T06:37:35.388Z,83.84
2023-01-17T06:40:05.409Z,82.86
2023-01-17T06:42:33.133Z,83.62
2023-01-17T06:45:00.910Z,83.17
2023-01-17T06:47:28.700Z,83.80
2023-01-17T06:49:56.458Z,83.08
2023-01-17T06:52:24.308Z,84.01
2023-01-17T06:54:52.025Z,83.14
2023-01-17T06:57:21.229Z,83.57
2023-01-17T06:59:49.034Z,83.67
2023-01-17T07:02:16.766Z,83.54
2023-01-17T07:04:44.537Z,83.11
2023-01-17T07:07:12.541Z,83.11
2023-01-17T07:09:40.642Z,83.64
2023-01-17T07:12:08.934Z,84.38
2023-01-17T07:14:38.218Z,84.94
2023-01-17T07:17:06.066Z,84.11
2023-01-17T07:19:33.791Z,84.92
2023-01-17T07:22:01.805Z,84.78
2023-01-17T07:24:29.548Z,85.29
2023-01-17T07:26:57.356Z,84.93
2023-01-17T07:29:25.251Z,85.08
2023-01-17T07:31:54.329Z,85.71
2023-01-17T07:34:22.246Z,85.67
2023-01-17T07:36:50.004Z,85.87
2023-01-17T07:39:17.754Z,86.07
2023-01-17T07:41:47.223Z,84.99
2023-01-17T07:44:15.482Z,84.91
2023-01-17T07:46:43.607Z,84.75
2023-01-17T07:49:14.452Z,84.25
2023-01-17T07:51:42.459Z,83.51
2023-01-17T07:54:12.573Z,83.74
2023-01-17T07:56:45.380Z,83.99
2023-01-17T07:59:13.220Z,83.60
2023-01-17T08:01:41.106Z,82.65
2023-01-17T08:04:09.901Z,83.06
2023-01-17T08:06:47.594Z,82.54
2023-01-17T08:09:15.419Z,83.48
2023-01-17T08:11:43.209Z,82.84
2023-01-17T08:14:10.979Z,83.32
2023-01-17T08:16:39.989Z,82.99
2023-01-17T08:19:07.848Z,80.96
2023-01-17T08:21:35.633Z,80.75
2023-01-17T08:24:06.104Z,80.69
2023-01-17T08:26:34.514Z,78.93
2023-01-17T08:29:02.464Z,78.50
2023-01-17T08:31:33.386Z,77.20
2023-01-17T08:34:01.978Z,76.45
2023-01-17T08:36:31.133Z,75.23
2023-01-17T08:39:00.092Z,74.47
2023-01-17T08:41:30.335Z,74.12
2023-01-17T08:43:58.795Z,73.44
2023-01-17T08:46:26.968Z,72.72
2023-01-17T08:48:58.608Z,70.99
2023-01-17T08:51:28.121Z,69.89
2023-01-17T08:53:57.485Z,70.42
2023-01-17T08:56:27.212Z,68.80
2023-01-17T08:58:56.442Z,68.89
2023-01-17T09:01:24.376Z,67.15
2023-01-17T09:03:52.274Z,66.37
2023-01-17T09:06:20.034Z,65.74
2023-01-17T09:08:49.484Z,67.06
2023-01-17T09:11:18.633Z,66.04
2023-01-17T09:13:46.436Z,65.30
2023-01-17T09:16:15.825Z,65.94
2023-01-17T09:18:43.955Z,68.19
2023-01-17T09:21:13.945Z,69.40
2023-01-17T09:23:42.599Z,71.14
2023-01-17T09:26:20.134Z,69.30
2023-01-17T09:28:48.039Z,67.22
2023-01-17T09:31:17.969Z,67.13
2023-01-17T09:33:45.866Z,69.10
2023-01-17T09:36:13.929Z,67.82
2023-01-17T09:38:41.758Z,66.93
2023-01-17T09:41:27.414Z,69.80
2023-01-17T09:44:03.981Z,70.01
2023-01-17T09:46:40.941Z,69.58
2023-01-17T09:49:15.513Z,69.26
2023-01-17T09:51:44.806Z,70.70
2023-01-17T09:54:23.763Z,70.39
2023-01-17T09:57:02.638Z,71.07
2023-01-17T09:59:45.661Z,70.80
2023-01-17T10:02:50.965Z,72.93
2023-01-17T10:05:45.126Z,72.95
2023-01-17T10:08:43.905Z,73.71
2023-01-17T10:11:36.006Z,72.27
2023-01-17T10:14:38.091Z,72.59
2023-01-17T10:17:25.413Z,74.22
2023-01-17T10:20:17.554Z,73.77
2023-01-17T10:23:04.986Z,73.04
2023-01-17T10:25:48.334Z,72.19
2023-01-17T10:28:19.283Z,71.75
2023-01-17T10:30:51.293Z,70.42
2023-01-17T10:33:25.376Z,71.60
2023-01-17T10:35:58.055Z,70.43
2023-01-17T10:38:35.036Z,71.30
2023-01-17T10:41:11.892Z,72.66
2023-01-17T10:43:49.587Z,72.86
2023-01-17T10:46:28.302Z,73.19
2023-01-17T10:48:57.773Z,72.64
2023-01-17T10:51:59.906Z,72.26
2023-01-17T10:54:51.324Z,73.15
2023-01-17T10:57:23.524Z,71.90
2023-01-17T10:59:53.042Z,71.68
2023-01-17T11:02:27.857Z,71.51
2023-01-17T11:04:58.281Z,72.29
2023-01-17T11:07:30.341Z,72.45
2023-01-17T11:09:59.903Z,71.94
2023-01-17T11:12:32.954Z,71.52
2023-01-17T11:15:17.749Z,73.21
2023-01-17T11:17:53.079Z,73.77
2023-01-17T11:20:31.344Z,73.09
2023-01-17T11:23:12.367Z,70.93
2023-01-17T11:25:40.231Z,70.37
2023-01-17T11:28:21.286Z,69.36
2023-01-17T11:30:56.380Z,69.46
2023-01-17T11:33:45.142Z,66.79
2023-01-17T11:36:22.774Z,66.59
2023-01-17T11:39:03.846Z,68.14
2023-01-17T11:41:36.335Z,66.89
2023-01-17T11:44:21.972Z,67.29
2023-01-17T11:46:50.109Z,69.38
2023-01-17T11:49:25.585Z,67.73
2023-01-17T11:51:56.350Z,66.70
2023-01-17T11:54:33.619Z,67.46
2023-01-17T11:57:03.246Z,64.57
2023-01-17T11:59:35.210Z,65.19
2023-01-17T12:03:05.300Z,65.69
2023-01-17T12:05:53.615Z,65.86
2023-01-17T12:08:56.336Z,65.23
2023-01-17T12:12:04.478Z,66.22
2023-01-17T12:14:49.053Z,66.19
2023-01-17T12:17:37.398Z,66.84
2023-01-17T12:20:18.131Z,66.75
2023-01-17T12:23:27.659Z,65.36
2023-01-17T12:26:19.721Z,65.45
2023-01-17T12:29:24.747Z,67.57
2023-01-17T12:32:12.752Z,66.78
2023-01-17T12:34:50.789Z,66.66
2023-01-17T12:37:25.367Z,65.28
2023-01-17T12:40:01.601Z,63.98
2023-01-17T12:42:40.654Z,64.33
2023-01-17T12:45:20.139Z,62.42
2023-01-17T12:47:57.458Z,63.35
2023-01-17T12:50:34.688Z,63.35
2023-01-17T12:53:11.899Z,60.62
2023-01-17T12:55:51.908Z,62.14
2023-01-17T12:58:26.521Z,61.92
2023-01-17T13:01:05.708Z,61.24
2023-01-17T13:03:57.550Z,59.45
2023-01-17T13:06:37.445Z,59.08
2023-01-17T13:09:06.736Z,58.87
2023-01-17T13:11:44.138Z,60.67
2023-01-17T13:14:12.276Z,58.22
2023-01-17T13:16:50.045Z,57.25
2023-01-17T13:19:32.862Z,55.65
2023-01-17T13:22:06.635Z,55.60
2023-01-17T13:24:50.875Z,56.47
2023-01-17T13:27:46.536Z,53.16
2023-01-17T13:30:37.519Z,54.41
2023-01-17T13:33:39.899Z,54.26
2023-01-17T13:36:30.404Z,54.00
2023-01-17T13:39:35.268Z,53.68
2023-01-17T13:42:18.890Z,52.46
2023-01-17T13:44:47.626Z,51.29
2023-01-17T13:47:51.100Z,52.69
2023-01-17T13:50:52.924Z,51.87
2023-01-17T13:54:00.149Z,51.08
2023-01-17T13:56:36.990Z,48.22
2023-01-17T13:59:30.644Z,51.27
2023-01-17T14:01:58.642Z,51.97
2023-01-17T14:05:12.409Z,50.21
2023-01-17T14:07:48.574Z,49.77
2023-01-17T14:10:34.590Z,50.66
2023-01-17T14:13:04.387Z,48.43
2023-01-17T14:15:48.505Z,48.84
2023-01-17T14:18:35.246Z,50.33
2023-01-17T14:21:20.120Z,49.23
2023-01-17T14:24:04.370Z,51.00
2023-01-17T14:26:54.213Z,49.94
2023-01-17T14:29:57.026Z,52.46
2023-01-17T14:32:32.055Z,51.91
2023-01-17T14:35:00.502Z,53.46
2023-01-17T14:37:50.605Z,52.73
2023-01-17T14:40:26.350Z,53.79
2023-01-17T14:43:02.101Z,53.98
2023-01-17T14:45:33.878Z,54.92
2023-01-17T14:48:06.926Z,55.31
2023-01-17T14:50:39.553Z,55.91
2023-01-17T14:53:20.328Z,56.66
2023-01-17T14:55:56.538Z,58.08
2023-01-17T14:58:27.694Z,58.42
2023-01-17T15:01:01.506Z,57.77
2023-01-17T15:03:32.903Z,58.55
2023-01-17T15:06:13.152Z,58.09
2023-01-17T15:08:41.081Z,57.91
2023-01-17T15:11:19.686Z,57.91
2023-01-17T15:13:53.705Z,57.72
2023-01-17T15:16:25.914Z,58.55
2023-01-17T15:18:57.178Z,57.66
2023-01-17T15:21:29.213Z,58.18
2023-01-17T15:24:00.621Z,58.86
2023-01-17T15:26:34.729Z,58.03
2023-01-17T15:29:15.671Z,58.23
2023-01-17T15:31:46.687Z,58.75
2023-01-17T15:34:27.285Z,59.18
2023-01-17T15:36:58.448Z,58.68
2023-01-17T15:39:30.875Z,58.56
2023-01-17T15:42:04.577Z,58.60
2023-01-17T15:44:53.299Z,59.49
2023-01-17T15:47:31.161Z,59.36
2023-01-17T15:50:00.682Z,60.41
2023-01-17T15:52:29.185Z,60.41
2023-01-17T15:55:00.961Z,60.41
2023-01-17T15:57:36.899Z,60.47
2023-01-17T16:00:20.316Z,60.39
2023-01-17T16:02:55.099Z,60.19
2023-01-17T16:05:41.636Z,60.10
2023-01-17T16:08:30.343Z,60.71
2023-01-17T16:11:02.901Z,60.34
2023-01-17T16:13:35.012Z,60.38
2023-01-17T16:16:16.125Z,59.98
2023-01-17T16:18:46.459Z,60.79
2023-01-17T16:21:24.673Z,60.28
2023-01-17T16:23:53.621Z,60.59
2023-01-17T16:26:22.948Z,60.54
2023-01-17T16:28:53.027Z,61.25
2023-01-17T16:31:22.013Z,60.94
2023-01-17T16:33:51.812Z,61.12
2023-01-17T16:36:21.348Z,61.75
2023-01-17T16:38:52.369Z,62.16
2023-01-17T16:41:21.449Z,61.37
2023-01-17T16:43:59.656Z,60.99
2023-01-17T16:46:27.793Z,61.49
2023-01-17T16:48:55.820Z,61.33
2023-01-17T16:51:23.629Z,62.52
2023-01-17T16:53:51.429Z,62.40
2023-01-17T16:56:20.916Z,63.01
2023-01-17T16:58:48.955Z,61.87
2023-01-17T17:01:21.227Z,62.15
2023-01-17T17:03:50.139Z,62.52
2023-01-17T17:06:18.250Z,62.83
2023-01-17T17:08:46.067Z,63.41
2023-01-17T17:11:17.487Z,62.81
2023-01-17T17:13:49.050Z,62.51
2023-01-17T17:16:21.196Z,62.37
2023-01-17T17:18:57.632Z,63.09
2023-01-17T17:21:26.144Z,63.08
2023-01-17T17:23:57.066Z,63.86
2023-01-17T17:26:27.602Z,63.91
2023-01-17T17:28:56.042Z,63.92
2023-01-17T17:31:26.089Z,63.97
2023-01-17T17:34:00.377Z,63.44
2023-01-17T17:36:28.530Z,64.13
2023-01-17T17:38:57.549Z,64.82
2023-01-17T17:41:28.731Z,65.04
2023-01-17T17:43:57.464Z,65.15
2023-01-17T17:46:29.193Z,65.12
2023-01-17T17:48:58.656Z,66.14
2023-01-17T17:51:29.747Z,64.96
2023-01-17T17:54:01.866Z,65.98
2023-01-17T17:56:32.251Z,65.74
2023-01-17T17:59:01.604Z,66.32
2023-01-17T18:01:31.095Z,65.38
2023-01-17T18:04:04.059Z,65.46
2023-01-17T18:06:31.953Z,66.52
2023-01-17T18:08:59.944Z,66.23
2023-01-17T18:11:30.437Z,65.55
2023-01-17T18:14:02.291Z,67.40
2023-01-17T18:16:35.785Z,66.44
2023-01-17T18:19:06.345Z,67.09
2023-01-17T18:21:37.353Z,66.75
2023-01-17T18:24:08.143Z,66.95
2023-01-17T18:26:39.771Z,66.69
2023-01-17T18:29:10.387Z,65.95
2023-01-17T18:31:39.792Z,66.45
2023-01-17T18:34:10.832Z,66.87
2023-01-17T18:36:39.511Z,66.68
2023-01-17T18:39:16.100Z,66.82
2023-01-17T18:41:44.585Z,66.88
2023-01-17T18:44:13.634Z,67.62
2023-01-17T18:46:43.215Z,67.14
2023-01-17T18:49:14.709Z,67.85
2023-01-17T18:51:46.385Z,68.04
2023-01-17T18:54:14.455Z,67.28
2023-01-17T18:56:42.860Z,66.19
2023-01-17T18:59:14.009Z,66.47
2023-01-17T19:01:43.673Z,66.80
2023-01-17T19:04:13.554Z,67.27
2023-01-17T19:06:45.348Z,67.25
2023-01-17T19:09:15.573Z,66.68
2023-01-17T19:11:45.004Z,66.24
2023-01-17T19:14:14.426Z,67.14
2023-01-17T19:16:43.872Z,65.94
2023-01-17T19:19:14.954Z,66.23
2023-01-17T19:21:42.963Z,66.42
2023-01-17T19:24:12.978Z,66.54
2023-01-17T19:26:41.116Z,67.17
2023-01-17T19:29:09.068Z,67.02
2023-01-17T19:31:42.491Z,66.69
2023-01-17T19:34:13.888Z,66.00
2023-01-17T19:36:42.206Z,66.09
2023-01-17T19:39:10.961Z,66.07
2023-01-17T19:41:44.736Z,66.10
2023-01-17T19:44:15.368Z,66.84
2023-01-17T19:46:43.982Z,66.26
2023-01-17T19:49:13.688Z,67.02
2023-01-17T19:51:41.396Z,66.93
2023-01-17T19:54:09.229Z,66.49
2023-01-17T19:56:37.637Z,66.91
2023-01-17T19:59:05.932Z,66.65
2023-01-17T20:01:35.763Z,68.45
2023-01-17T20:04:04.634Z,68.80
2023-01-17T20:06:36.957Z,69.50
2023-01-17T20:09:06.304Z,69.56
2023-01-17T20:11:34.195Z,70.56
2023-01-17T20:14:02.590Z,69.37
2023-01-17T20:16:33.130Z,69.53
2023-01-17T20:19:02.546Z,69.30
2023-01-17T20:21:34.366Z,68.70
2023-01-17T20:24:04.182Z,70.00
2023-01-17T20:26:35.727Z,68.92
2023-01-17T20:29:09.934Z,68.61
2023-01-17T20:31:39.378Z,69.29
2023-01-17T20:34:09.918Z,68.69
2023-01-17T20:36:41.480Z,67.54
2023-01-17T20:39:10.959Z,69.59
2023-01-17T20:41:42.409Z,68.65
2023-01-17T20:44:13.930Z,68.42
2023-01-17T20:46:42.918Z,68.57
2023-01-17T20:49:15.462Z,69.43
2023-01-17T20:51:47.272Z,68.42
2023-01-17T20:54:20.250Z,68.99
2023-01-17T20:56:48.796Z,68.63
2023-01-17T20:59:19.480Z,68.85
2023-01-17T21:01:48.185Z,68.82
2023-01-17T21:04:20.031Z,69.38
2023-01-17T21:06:51.611Z,68.92
2023-01-17T21:09:21.287Z,68.78
2023-01-17T21:11:50.451Z,70.15
2023-01-17T21:14:18.837Z,69.95
2023-01-17T21:16:46.803Z,69.30
2023-01-17T21:19:16.204Z,68.94
2023-01-17T21:21:44.184Z,67.53
2023-01-17T21:24:18.450Z,68.01
2023-01-17T21:26:47.802Z,67.98
2023-01-17T21:29:16.413Z,69.06
2023-01-17T21:31:45.211Z,68.88
2023-01-17T21:34:15.193Z,68.73
2023-01-17T21:36:44.146Z,68.96
2023-01-17T21:39:16.499Z,68.79
2023-01-17T21:41:47.746Z,68.41
2023-01-17T21:44:20.286Z,68.74
2023-01-17T21:46:49.201Z,69.00
2023-01-17T21:49:17.191Z,69.10
2023-01-17T21:52:02.206Z,69.46
2023-01-17T21:54:50.395Z,70.13
2023-01-17T21:57:40.821Z,69.58
2023-01-17T22:00:14.248Z,67.83
2023-01-17T22:02:42.544Z,70.40
2023-01-17T22:05:11.538Z,69.19
2023-01-17T22:07:40.115Z,69.16
2023-01-17T22:10:11.274Z,69.66
2023-01-17T22:12:39.097Z,69.80
2023-01-17T22:15:09.002Z,68.44
2023-01-17T22:17:38.205Z,69.13
2023-01-17T22:20:15.450Z,68.55
2023-01-17T22:22:48.348Z,67.96
2023-01-17T22:25:17.699Z,68.28
2023-01-17T22:27:45.599Z,68.71
2023-01-17T22:30:14.554Z,68.73
2023-01-17T22:32:50.436Z,68.37
2023-01-17T22:35:38.865Z,68.93
2023-01-17T22:38:07.510Z,68.77
2023-01-17T22:40:38.390Z,68.71
2023-01-17T22:43:40.497Z,68.90
2023-01-17T22:46:12.065Z,68.48
2023-01-17T22:48:41.059Z,68.17
2023-01-17T22:51:12.135Z,69.74
2023-01-17T22:53:42.230Z,69.52
2023-01-17T22:56:14.173Z,70.27
2023-01-17T22:58:44.930Z,69.18
2023-01-17T23:01:15.106Z,68.73
2023-01-17T23:03:44.553Z,69.41
2023-01-17T23:06:16.968Z,68.71
2023-01-17T23:08:48.339Z,69.79
2023-01-17T23:11:42.441Z,68.52
2023-01-17T23:14:15.965Z,69.54
2023-01-17T23:17:07.192Z,69.40
2023-01-17T23:19:38.545Z,69.02
2023-01-17T23:22:19.583Z,67.95
2023-01-17T23:24:51.600Z,68.99
2023-01-17T23:27:42.046Z,68.54
2023-01-17T23:30:13.565Z,69.14
2023-01-17T23:32:46.177Z,68.40
2023-01-17T23:35:14.863Z,69.44
2023-01-17T23:38:00.372Z,70.42
2023-01-17T23:40:28.339Z,70.47
2023-01-17T23:43:15.433Z,69.65
2023-01-17T23:45:43.574Z,68.95
2023-01-17T23:48:11.925Z,69.36
2023-01-17T23:50:44.084Z,69.69
2023-01-17T23:53:22.201Z,69.85
2023-01-17T23:55:52.632Z,70.36
2023-01-17T23:58:24.196Z,69.48
